Latest Coastal Weather Observations for Neptune Island

IDS60701

Issued at 4:31 am CST Monday 27 June 2016 (issued every 10 minutes, with the page automatically refreshed every 10 minutes)

About coastal observations | Map of coastal stations | Coastal observations for SA | Marine services | Other Formats
Station Details ID: 018115 Name: NEPTUNE ISLAND Lat: -35.34 Lon: 136.12 Height: 32.0 m
Data from the previous 72 hours. | See also: Recent months at Neptune Island
Date/Time
CST
Temp
°C
Wind Pressure Rain since
9am
mm
Weather Cloud Vis
km
Sea
Height
m
Swell
Dir  Spd
kts
Gust
kts
hPa Trend Height
m
Period
s
Dir
27/04:30am 13.1 SW 14 17 1017.8 - 10.2 - - - - - - -
27/04:00am 13.2 SSW 14 19 1017.6 - 10.2 - - - - - - -
27/03:30am 13.1 SW 15 20 1017.5 - 10.2 - - - - - - -
27/03:00am 13.0 SW 15 18 1017.5 - 10.2 - - - - - - -
27/02:30am 13.2 SSW 16 20 1017.2 - 10.2 - - - - - - -
27/02:00am 13.1 SW 17 20 1017.0 - 10.2 - - - - - - -
27/01:30am 13.3 SSW 17 20 1016.9 - 10.2 - - - - - - -
27/01:00am 13.2 SSW 17 22 1017.0 - 10.2 - - - - - - -
27/12:30am 13.2 SSW 19 23 1016.9 - 10.2 - - - - - - -
27/12:00am 13.0 SSW 18 23 1016.9 - 10.2 - - - - - - -
 
Date/Time
CST
Temp
°C
Wind Pressure Rain since
9am
mm
Weather Cloud Vis
km
Sea
Height
m
Swell
Dir  Spd
kts
Gust
kts
hPa Trend Height
m
Period
s
Dir
26/11:30pm 13.4 SSW 20 24 1016.7 - 10.2 - - - - - - -
26/11:00pm 13.4 SSW 19 24 1016.5 - 10.2 - - - - - - -
26/10:30pm 13.2 S 20 23 1016.3 - 10.2 - - - - - - -
26/10:00pm 13.1 S 18 24 1015.9 - 10.2 - - - - - - -
26/09:58pm 13.0 S 16 24 1015.9 - 10.2 - - - - - - -
26/09:30pm 11.7 SSE 11 16 1016.0 - 10.2 - - - - - - -
26/09:00pm 11.4 SSW 13 16 1015.9 - 9.4 Rain - - - - - -
26/08:30pm 12.0 SSW 11 20 1015.5 - 8.0 - - - - - - -
26/08:00pm 12.5 W 9 12 1015.2 - 4.8 - - - - - - -
26/07:30pm 12.1 WSW 9 11 1015.1 - 4.8 - - - - - - -
26/07:00pm 11.7 W 19 22 1014.8 - 4.0 - - - - - - -
26/06:37pm 12.3 WNW 19 25 1014.6 - 3.4 - - - - - - -
26/06:30pm 12.9 NW 18 21 1014.5 - 3.4 - - - - - - -
26/06:00pm 12.8 NW 17 19 1014.1 - 3.4 - - - - - - -
26/05:30pm 13.0 WNW 14 18 1013.9 - 3.4 - - - - - - -
26/05:00pm 12.7 WNW 11 14 1013.9 - 3.4 - - - - - - -
26/04:30pm 13.1 W 15 20 1013.6 - 1.6 - - - - - - -
26/04:00pm 13.0 WNW 18 21 1013.4 - 1.2 - - - - - - -
26/03:30pm 13.1 NW 17 22 1013.3 - 1.0 - - - - - - -
26/03:19pm 13.0 NW 19 24 1013.3 - 1.0 - - - - - - -
26/03:00pm 13.0 NNW 20 24 1013.0 - 1.0 Recent precip. - - - - - -
26/02:30pm 12.9 NNW 20 23 1013.0 - 1.0 - - - - - - -
26/02:00pm 12.2 NW 18 23 1013.5 - 0.2 - - - - - - -
26/01:30pm 13.6 NNW 19 23 1013.6 - 0.0 - - - - - - -
26/01:00pm 12.6 NNW 17 23 1014.2 - 0.0 - - - - - - -
26/12:30pm 13.7 NNW 20 24 1014.4 - 0.0 - - - - - - -
26/12:00pm 13.6 NNW 19 24 1014.6 - 0.0 - - - - - - -
26/11:30am 13.3 NNW 19 23 1015.1 - 0.0 - - - - - - -
26/11:00am 13.5 NNW 17 21 1015.6 - 0.0 - - - - - - -
26/10:30am 12.8 NNW 17 20 1015.7 - 0.0 - - - - - - -
26/10:00am 12.9 NNW 15 18 1015.7 - 0.0 - - - - - - -
26/09:30am 12.3 NNW 17 20 1015.7 - 0.0 - - - - - - -
26/09:00am 11.9 NNW 19 22 1016.0 - 0.0 - - - - - - -
26/08:30am 12.1 NNW 17 20 1015.8 - 0.0 - - - - - - -
26/08:00am 11.6 NNW 18 22 1015.6 - 0.0 - - - - - - -
26/07:30am 11.5 NNW 18 22 1015.6 - 0.0 - - - - - - -
26/07:00am 11.5 NNW 21 25 1015.6 - 0.0 - - - - - - -
26/06:30am 11.6 NNW 21 25 1015.6 - 0.0 - - - - - - -
26/06:00am 11.8 NNW 21 24 1015.4 - 0.0 - - - - - - -
26/05:30am 12.2 NNW 18 22 1015.3 - 0.0 - - - - - - -
26/05:00am 12.3 NNW 16 20 1015.3 - 0.0 - - - - - - -
26/04:30am 12.2 NNW 15 19 1015.6 - 0.0 - - - - - - -
26/04:00am 11.7 NNW 18 22 1016.0 - 0.0 - - - - - - -
26/03:30am 11.3 NNW 19 23 1016.4 - 0.0 - - - - - - -
26/03:00am 11.4 NNW 19 24 1016.7 - 0.0 - - - - - - -
26/02:30am 11.6 N 19 23 1016.6 - 0.0 - - - - - - -
26/02:00am 11.5 N 20 25 1016.8 - 0.0 - - - - - - -
26/01:30am 11.5 N 19 23 1017.0 - 0.0 - - - - - - -
26/01:00am 11.3 N 18 22 1017.1 - 0.0 - - - - - - -
26/12:30am 11.5 NNW 20 24 1017.3 - 0.0 - - - - - - -
26/12:00am 11.8 N 19 23 1017.6 - 0.0 - - - - - - -
 
Date/Time
CST
Temp
°C
Wind Pressure Rain since
9am
mm
Weather Cloud Vis
km
Sea
Height
m
Swell
Dir  Spd
kts
Gust
kts
hPa Trend Height
m
Period
s
Dir
25/11:30pm 12.0 N 18 23 1017.7 - 0.0 - - - - - - -
25/11:00pm 12.1 N 20 24 1017.9 - 0.0 - - - - - - -
25/10:30pm 12.2 N 21 25 1018.1 - 0.0 - - - - - - -
25/10:00pm 12.5 N 18 22 1018.3 - 0.0 - - - - - - -
25/09:30pm 12.3 NNW 18 22 1018.5 - 0.0 - - - - - - -
25/09:00pm 12.3 NNW 16 19 1018.3 - 0.0 - - - - - - -
25/08:30pm 12.4 NNW 15 18 1018.5 - 0.0 - - - - - - -
25/08:00pm 12.4 NNE 18 22 1018.6 - 0.0 - - - - - - -
25/07:30pm 12.4 N 17 21 1018.9 - 0.0 - - - - - - -
25/07:00pm 12.4 N 18 21 1019.1 - 0.0 - - - - - - -
25/06:30pm 12.2 N 17 20 1019.4 - 0.0 - - - - - - -
25/06:00pm 12.0 N 15 19 1019.1 - 0.0 - - - - - - -
25/05:30pm 12.0 NNE 16 21 1018.9 - 0.0 - - - - - - -
25/05:00pm 12.1 N 17 23 1019.1 - 0.0 - - - - - - -
25/04:30pm 12.5 NNE 18 21 1019.1 - 0.0 - - - - - - -
25/04:00pm 12.9 NNE 19 22 1019.3 - 0.0 - - - - - - -
25/03:30pm 13.2 N 17 21 1019.5 - 0.0 - - - - - - -
25/03:00pm 13.4 N 18 21 1019.5 - 0.0 - - - - - - -
25/02:30pm 14.0 N 16 20 1020.0 - 0.0 - - - - - - -
25/02:00pm 13.9 N 16 19 1020.3 - 0.0 - - - - - - -
25/01:30pm 14.0 N 15 18 1020.7 - 0.0 - - - - - - -
25/01:00pm 13.9 N 14 18 1021.1 - 0.0 - - - - - - -
25/12:30pm 14.1 N 13 17 1021.5 - 0.0 - - - - - - -
25/12:00pm 14.3 N 12 15 1022.1 - 0.0 - - - - - - -
25/11:30am 14.1 NNW 11 14 1022.4 - 0.0 - - - - - - -
25/11:00am 13.8 N 13 16 1022.8 - 0.0 - - - - - - -
25/10:30am 13.3 NNW 14 17 1023.0 - 0.0 - - - - - - -
25/10:00am 12.9 NNW 15 20 1023.0 - 0.0 - - - - - - -
25/09:30am 12.8 NNW 14 16 1022.9 - 0.0 - - - - - - -
25/09:00am 12.7 NNW 12 15 1022.7 - 6.4 - - - - - - -
25/08:30am 12.3 NNW 9 13 1022.8 - 6.4 - - - - - - -
25/08:00am 11.6 NNW 10 12 1022.7 - 6.4 - - - - - - -
25/07:30am 11.7 NNW 12 16 1022.5 - 6.4 - - - - - - -
25/07:00am 11.9 NW 11 13 1022.5 - 6.4 - - - - - - -
25/06:30am 11.9 NW 9 12 1022.4 - 6.4 - - - - - - -
25/06:00am 11.5 WNW 11 14 1022.2 - 6.4 Recent precip. - - - - - -
25/05:30am 11.2 WNW 13 16 1022.2 - 6.4 - - - - - - -
25/05:00am 10.5 SSW 5 8 1022.1 - 6.0 - - - - - - -
25/04:30am 10.2 - 1 3 1022.3 - 0.6 - - - - - - -
25/04:00am 10.8 N 10 12 1022.2 - 0.0 - - - - - - -
25/03:30am 11.0 NNW 10 14 1022.1 - 0.0 - - - - - - -
25/03:00am 11.7 S 5 7 1022.0 - 0.0 - - - - - - -
25/02:30am 11.4 S 5 6 1022.3 - 0.0 - - - - - - -
25/02:00am 11.8 S 9 10 1022.4 - 0.0 - - - - - - -
25/01:30am 12.0 NW 6 8 1022.4 - 0.0 - - - - - - -
25/01:00am 12.1 WSW 7 10 1022.4 - 0.0 - - - - - - -
25/12:30am 12.1 WSW 7 9 1022.3 - 0.0 - - - - - - -
25/12:00am 11.9 SW 3 5 1022.2 - 0.0 - - - - - - -
 
Date/Time
CST
Temp
°C
Wind Pressure Rain since
9am
mm
Weather Cloud Vis
km
Sea
Height
m
Swell
Dir  Spd
kts
Gust
kts
hPa Trend Height
m
Period
s
Dir
24/11:30pm 11.9 SSW 6 9 1022.1 - 0.0 - - - - - - -
24/11:00pm 11.7 SSW 3 5 1022.3 - 0.0 - - - - - - -
24/10:30pm 11.4 SE 5 7 1022.5 - 0.0 - - - - - - -
24/10:00pm 11.8 S 11 15 1022.4 - 0.0 - - - - - - -
24/09:30pm 12.0 WSW 9 15 1022.1 - 0.0 - - - - - - -
24/09:00pm 11.6 WNW 8 9 1022.3 - 0.0 - - - - - - -
24/08:30pm 11.7 W 8 11 1022.2 - 0.0 - - - - - - -
24/08:00pm 12.5 SW 10 18 1021.9 - 0.0 - - - - - - -
24/07:30pm 12.2 SSW 9 15 1021.7 - 0.0 - - - - - - -
24/07:00pm 12.6 SW 16 20 1021.1 - 0.0 - - - - - - -
24/06:30pm 12.6 SW 14 18 1020.8 - 0.0 - - - - - - -
24/06:00pm 12.2 SSW 10 14 1020.5 - 0.0 - - - - - - -
24/05:30pm 11.9 SW 19 23 1019.9 - 0.0 - - - - - - -
24/05:00pm 12.5 SW 15 19 1019.4 - 0.0 - - - - - - -
24/04:30pm 12.0 SW 11 21 1019.2 - 0.0 - - - - - - -
24/04:19pm 11.4 WSW 14 24 1019.2 - 0.0 - - - - - - -
24/04:00pm 12.5 SW 17 21 1018.7 - 0.0 - - - - - - -
24/03:30pm 13.4 SW 19 24 1018.4 - 0.0 - - - - - - -
24/03:00pm 12.4 SW 19 22 1018.0 - 0.0 - - - - - - -
24/02:30pm 13.2 SW 21 29 1017.6 - 0.0 - - - - - - -
24/02:26pm 13.2 SW 19 29 1017.5 - 0.0 - - - - - - -
24/02:00pm 12.8 SW 24 33 1017.6 - 0.0 - - - - - - -
24/01:53pm 13.3 SW 19 33 1017.5 - 0.0 - - - - - - -
24/01:30pm 13.0 SW 25 31 1017.4 - 0.0 - - - - - - -
24/01:00pm 12.8 SW 25 31 1017.3 - 0.0 - - - - - - -
24/12:30pm 12.8 SW 25 36 1017.2 - 0.0 - - - - - - -
24/12:28pm 13.0 SW 25 36 1017.0 - 0.0 - - - - - - -
24/12:00pm 12.5 SW 21 25 1017.4 - 0.0 - - - - - - -
24/11:37am 12.7 SW 23 33 1017.3 - 0.0 - - - - - - -
24/11:30am 12.8 SW 25 30 1017.3 - 0.0 - - - - - - -
24/11:00am 12.4 SW 28 34 1016.9 - 0.0 - - - - - - -
24/10:30am 12.0 SW 21 26 1016.8 - 0.0 - - - - - - -
24/10:15am 11.1 SW 29 40 1016.9 - 0.0 - - - - - - -
24/10:05am 11.4 SW 25 39 1016.0 - 0.0 - - - - - - -
24/10:03am 11.7 SW 22 32 1016.2 - 0.0 - - - - - - -
24/10:00am 11.5 SW 21 30 1016.4 - 0.0 - - - - - - -
24/09:42am 12.0 SW 27 38 1015.7 - 0.0 - - - - - - -
24/09:30am 11.8 SW 26 35 1015.5 - 0.0 - - - - - - -
24/09:00am 11.3 SW 25 30 1015.2 - 7.6 Recent precip. - - - - - -
24/08:30am 10.7 SW 31 37 1014.4 - 7.6 - - - - - - -
24/08:01am 11.7 SW 30 40 1013.4 - 7.4 - - - - - - -
24/08:00am 11.7 SW 31 40 1013.4 - 7.4 - - - - - - -
24/07:30am 11.3 SW 35 43 1012.5 - 7.4 - - - - - - -
24/07:26am 11.2 WSW 31 43 1012.4 - 7.4 - - - - - - -
24/07:19am 10.4 WSW 26 35 1012.8 - 7.4 - - - - - - -
24/07:16am 10.1 SW 29 45 1013.0 - 7.4 - - - - - - -
24/07:02am 11.4 SW 32 44 1012.1 - 7.2 - - - - - - -
24/07:00am 11.3 SW 31 37 1012.3 - 7.2 - - - - - - -
24/06:30am 11.2 SW 34 44 1011.6 - 7.2 - - - - - - -
24/06:27am 11.3 SW 34 44 1011.7 - 7.2 - - - - - - -
24/06:00am 10.4 SW 35 42 1011.1 - 7.2 Rain - - - - - -
24/05:30am 10.4 SW 39 51 1010.1 - 6.8 - - - - - - -
24/05:00am 11.0 SW 39 49 1009.4 - 6.8 - - - - - - -
24/04:43am 10.7 SW 35 45 1009.3 - 6.8 - - - - - - -

Other Formats:

Comma delimited format used in spreadsheet applications
http://www.bom.gov.au/fwo/IDS60701/IDS60701.94804.axf

JavaScript Object Notation format (JSON) in row-major order
http://www.bom.gov.au/fwo/IDS60701/IDS60701.94804.json